createdAt,value
2017-10-30T00:02:00.369Z,6.80
2017-10-30T00:04:03.010Z,6.60
2017-10-30T00:06:05.790Z,6.60
2017-10-30T00:08:08.499Z,6.50
2017-10-30T00:10:11.198Z,6.50
2017-10-30T00:12:14.620Z,6.70
2017-10-30T00:14:17.284Z,6.70
2017-10-30T00:16:19.966Z,6.80
2017-10-30T00:18:22.635Z,6.80
2017-10-30T00:20:25.441Z,6.90
2017-10-30T00:22:28.094Z,6.90
2017-10-30T00:24:31.517Z,6.90
2017-10-30T00:26:34.276Z,6.90
2017-10-30T00:28:37.046Z,6.90
2017-10-30T00:30:39.838Z,6.80
2017-10-30T00:32:42.488Z,6.80
2017-10-30T00:34:45.172Z,6.80
2017-10-30T00:36:47.827Z,6.70
2017-10-30T00:38:51.234Z,6.60
2017-10-30T00:40:53.901Z,6.60
2017-10-30T00:42:57.410Z,6.40
2017-10-30T00:45:00.088Z,6.30
2017-10-30T00:47:02.850Z,6.30
2017-10-30T00:49:06.358Z,6.20
2017-10-30T00:51:09.044Z,6.10
2017-10-30T00:53:11.699Z,6.10
2017-10-30T00:55:15.218Z,5.90
2017-10-30T00:57:17.864Z,5.90
2017-10-30T00:59:21.281Z,5.80
2017-10-30T01:01:24.068Z,5.80
2017-10-30T01:03:26.723Z,5.80
2017-10-30T01:05:30.150Z,5.70
2017-10-30T01:07:32.785Z,5.70
2017-10-30T01:09:36.230Z,5.60
2017-10-30T01:11:38.998Z,5.60
2017-10-30T01:13:41.691Z,5.60
2017-10-30T01:15:44.415Z,5.60
2017-10-30T01:17:47.829Z,5.60
2017-10-30T01:19:50.498Z,5.60
2017-10-30T01:21:53.151Z,5.50
2017-10-30T01:23:56.603Z,5.60
2017-10-30T01:25:59.258Z,5.60
2017-10-30T01:28:01.922Z,5.60
2017-10-30T01:30:04.585Z,5.70
2017-10-30T01:32:07.230Z,5.60
2017-10-30T01:34:09.881Z,5.60
2017-10-30T01:36:12.625Z,5.50
2017-10-30T01:38:15.296Z,5.60
2017-10-30T01:40:17.972Z,5.60
2017-10-30T01:42:20.639Z,5.60
2017-10-30T01:44:24.045Z,5.60
2017-10-30T01:46:26.833Z,5.50
2017-10-30T01:48:29.482Z,5.60
2017-10-30T01:50:32.940Z,5.60
2017-10-30T01:52:35.662Z,5.60
2017-10-30T01:54:38.354Z,5.60
2017-10-30T01:56:41.068Z,5.50
2017-10-30T01:58:43.809Z,5.40
2017-10-30T02:00:46.640Z,5.50
2017-10-30T02:02:49.359Z,5.40
2017-10-30T02:04:52.058Z,5.50
2017-10-30T02:06:54.720Z,5.40
2017-10-30T02:08:57.414Z,5.40
2017-10-30T02:11:00.085Z,5.40
2017-10-30T02:13:02.750Z,5.40
2017-10-30T02:15:05.446Z,5.30
2017-10-30T02:17:08.119Z,5.30
2017-10-30T02:19:10.893Z,5.40
2017-10-30T02:21:13.614Z,5.30
2017-10-30T02:23:16.434Z,5.30
2017-10-30T02:25:19.137Z,5.30
2017-10-30T02:27:21.819Z,5.30
2017-10-30T02:29:24.485Z,5.20
2017-10-30T02:31:27.237Z,5.20
2017-10-30T02:33:29.939Z,5.20
2017-10-30T02:35:32.639Z,5.20
2017-10-30T02:37:35.363Z,5.30
2017-10-30T02:39:38.155Z,5.40
2017-10-30T02:41:40.867Z,5.40
2017-10-30T02:43:43.557Z,5.50
2017-10-30T02:45:46.259Z,5.60
2017-10-30T02:47:49.722Z,5.50
2017-10-30T02:49:52.587Z,5.50
2017-10-30T02:51:55.315Z,5.40
2017-10-30T02:53:58.002Z,5.40
2017-10-30T02:56:00.711Z,5.30
2017-10-30T02:58:03.403Z,5.30
2017-10-30T03:00:06.077Z,5.20
2017-10-30T03:02:08.753Z,5.20
2017-10-30T03:04:11.424Z,5.20
2017-10-30T03:06:14.357Z,5.20
2017-10-30T03:08:17.046Z,5.20
2017-10-30T03:10:19.901Z,5.40
2017-10-30T03:12:23.353Z,5.50
2017-10-30T03:14:26.059Z,5.50
2017-10-30T03:16:28.769Z,5.60
2017-10-30T03:18:31.476Z,5.60
2017-10-30T03:20:34.274Z,5.70
2017-10-30T03:22:36.987Z,5.70
2017-10-30T03:24:39.688Z,5.80
2017-10-30T03:26:42.593Z,5.90
2017-10-30T03:28:45.278Z,5.90
2017-10-30T03:30:48.013Z,5.90
2017-10-30T03:32:50.719Z,6.00
2017-10-30T03:34:53.485Z,6.00
2017-10-30T03:36:56.177Z,6.00
2017-10-30T03:38:58.840Z,6.00
2017-10-30T03:41:01.725Z,6.00
2017-10-30T03:43:04.437Z,6.10
2017-10-30T03:45:07.085Z,6.10
2017-10-30T03:47:10.060Z,6.00
2017-10-30T03:49:12.730Z,6.00
2017-10-30T03:51:15.419Z,5.80
2017-10-30T03:53:18.176Z,5.70
2017-10-30T03:55:20.909Z,5.70
2017-10-30T03:57:24.358Z,5.50
2017-10-30T03:59:27.064Z,5.50
2017-10-30T04:01:29.751Z,5.40
2017-10-30T04:03:32.397Z,5.40
2017-10-30T04:05:35.057Z,5.30
2017-10-30T04:07:37.828Z,5.20
2017-10-30T04:09:40.496Z,5.20
2017-10-30T04:11:43.157Z,5.20
2017-10-30T04:13:46.605Z,5.10
2017-10-30T04:15:49.550Z,5.10
2017-10-30T04:17:52.208Z,5.10
2017-10-30T04:19:55.745Z,5.10
2017-10-30T04:21:58.395Z,5.10
2017-10-30T04:24:01.058Z,5.10
2017-10-30T04:26:04.494Z,5.20
2017-10-30T04:28:07.137Z,5.10
2017-10-30T04:30:09.856Z,5.20
2017-10-30T04:32:12.529Z,5.20
2017-10-30T04:34:15.173Z,5.20
2017-10-30T04:36:18.586Z,5.20
2017-10-30T04:38:21.259Z,5.20
2017-10-30T04:40:23.892Z,5.20
2017-10-30T04:42:26.564Z,5.20
2017-10-30T04:44:29.228Z,5.20
2017-10-30T04:46:31.871Z,5.10
2017-10-30T04:48:34.539Z,5.10
2017-10-30T04:50:37.321Z,5.00
2017-10-30T04:52:40.022Z,5.00
2017-10-30T04:54:42.680Z,4.90
2017-10-30T04:56:45.553Z,5.00
2017-10-30T04:58:48.216Z,5.00
2017-10-30T05:00:50.875Z,5.00
2017-10-30T05:02:54.347Z,5.00
2017-10-30T05:04:57.077Z,5.00
2017-10-30T05:06:59.731Z,5.00
2017-10-30T05:09:03.209Z,4.90
2017-10-30T05:11:05.850Z,4.90
2017-10-30T05:13:09.610Z,4.90
2017-10-30T05:15:12.282Z,4.80
2017-10-30T05:17:14.940Z,4.80
2017-10-30T05:19:18.371Z,4.90
2017-10-30T05:21:21.027Z,4.90
2017-10-30T05:23:24.425Z,5.00
2017-10-30T05:25:27.229Z,4.90
2017-10-30T05:27:30.019Z,4.90
2017-10-30T05:29:32.785Z,4.90
2017-10-30T05:31:35.555Z,4.90
2017-10-30T05:33:38.349Z,4.90
2017-10-30T05:35:41.138Z,4.90
2017-10-30T05:37:43.800Z,4.90
2017-10-30T05:39:46.502Z,4.90
2017-10-30T05:41:49.146Z,4.90
2017-10-30T05:43:51.900Z,4.80
2017-10-30T05:45:54.718Z,4.90
2017-10-30T05:47:57.729Z,4.80
2017-10-30T05:50:00.632Z,4.80
2017-10-30T05:52:04.179Z,4.90
2017-10-30T05:54:06.922Z,4.80
2017-10-30T05:56:09.734Z,4.90
2017-10-30T05:58:12.375Z,4.90
2017-10-30T06:00:15.060Z,4.90
2017-10-30T06:02:17.738Z,4.90
2017-10-30T06:04:20.364Z,4.90
2017-10-30T06:06:23.044Z,4.90
2017-10-30T06:08:25.861Z,4.90
2017-10-30T06:10:28.687Z,4.90
2017-10-30T06:12:31.525Z,4.80
2017-10-30T06:14:35.580Z,4.80
2017-10-30T06:16:38.335Z,4.80
2017-10-30T06:18:41.073Z,4.80
2017-10-30T06:20:43.760Z,4.80
2017-10-30T06:22:46.416Z,4.70
2017-10-30T06:24:49.842Z,4.70
2017-10-30T06:26:52.601Z,4.70
2017-10-30T06:28:56.119Z,4.70
2017-10-30T06:30:58.800Z,4.60
2017-10-30T06:33:01.609Z,4.70
2017-10-30T06:35:04.311Z,4.80
2017-10-30T06:37:07.096Z,4.80
2017-10-30T06:39:10.512Z,4.90
2017-10-30T06:41:13.607Z,4.90
2017-10-30T06:43:16.257Z,5.00
2017-10-30T06:45:19.720Z,5.10
2017-10-30T06:47:22.365Z,5.10
2017-10-30T06:49:25.006Z,5.20
2017-10-30T06:51:28.447Z,5.20
2017-10-30T06:53:31.085Z,5.20
2017-10-30T06:55:33.757Z,5.30
2017-10-30T06:57:38.434Z,5.30
2017-10-30T06:59:41.161Z,5.30
2017-10-30T07:01:43.856Z,5.50
2017-10-30T07:03:47.854Z,5.60
2017-10-30T07:05:50.877Z,5.60
2017-10-30T07:07:56.516Z,5.80
2017-10-30T07:09:59.163Z,6.10
2017-10-30T07:12:01.943Z,7.00
2017-10-30T07:14:05.971Z,7.50
2017-10-30T07:16:09.490Z,8.30
2017-10-30T07:18:12.151Z,8.20
2017-10-30T07:20:14.897Z,8.20
2017-10-30T07:22:17.577Z,8.20
2017-10-30T07:24:20.236Z,8.60
2017-10-30T07:26:22.910Z,8.40
2017-10-30T07:28:25.602Z,8.70
2017-10-30T07:30:28.295Z,8.60
2017-10-30T07:32:30.933Z,7.90
2017-10-30T07:34:34.343Z,8.20
2017-10-30T07:36:37.438Z,8.20
2017-10-30T07:38:40.103Z,7.90
2017-10-30T07:40:42.763Z,8.00
2017-10-30T07:42:45.445Z,8.50
2017-10-30T07:44:48.095Z,9.10
2017-10-30T07:46:50.767Z,9.40
2017-10-30T07:48:53.527Z,9.90
2017-10-30T07:50:56.234Z,10.60
2017-10-30T07:52:59.701Z,10.10
2017-10-30T07:55:03.558Z,10.10
2017-10-30T07:57:06.755Z,11.10
2017-10-30T07:59:09.509Z,11.50
2017-10-30T08:01:12.965Z,10.90
2017-10-30T08:03:15.667Z,10.90
2017-10-30T08:05:19.128Z,11.50
2017-10-30T08:07:22.587Z,12.30
2017-10-30T08:09:25.296Z,12.30
2017-10-30T08:11:28.114Z,12.40
2017-10-30T08:13:31.591Z,12.10
2017-10-30T08:15:34.312Z,12.10
2017-10-30T08:17:37.015Z,12.10
2017-10-30T08:19:39.895Z,12.20
2017-10-30T08:21:42.636Z,12.40
2017-10-30T08:23:46.609Z,12.90
2017-10-30T08:25:49.322Z,13.10
2017-10-30T08:27:52.895Z,12.40
2017-10-30T08:29:55.583Z,12.40
2017-10-30T08:31:59.091Z,12.80
2017-10-30T08:34:02.758Z,13.70
2017-10-30T08:36:05.487Z,13.70
2017-10-30T08:38:08.217Z,12.90
2017-10-30T08:40:10.905Z,13.70
2017-10-30T08:42:13.604Z,13.30
2017-10-30T08:44:16.348Z,14.30
2017-10-30T08:46:19.164Z,14.40
2017-10-30T08:48:22.002Z,13.70
2017-10-30T08:50:24.725Z,13.60
2017-10-30T08:52:27.499Z,13.70
2017-10-30T08:54:30.269Z,14.30
2017-10-30T08:56:33.742Z,14.30
2017-10-30T08:58:36.600Z,14.30
2017-10-30T09:00:39.331Z,13.30
2017-10-30T09:02:42.123Z,14.50
2017-10-30T09:04:45.125Z,14.90
2017-10-30T09:06:47.897Z,14.10
2017-10-30T09:08:50.592Z,13.90
2017-10-30T09:10:53.374Z,14.10
2017-10-30T09:12:56.123Z,14.80
2017-10-30T09:14:58.846Z,14.20
2017-10-30T09:17:01.725Z,14.20
2017-10-30T09:19:04.426Z,14.70
2017-10-30T09:21:07.951Z,13.70
2017-10-30T09:23:10.727Z,13.70
2017-10-30T09:25:13.403Z,13.90
2017-10-30T09:27:16.094Z,13.80
2017-10-30T09:29:18.818Z,13.30
2017-10-30T09:31:21.517Z,13.90
2017-10-30T09:33:24.212Z,14.30
2017-10-30T09:35:26.945Z,13.70
2017-10-30T09:37:29.621Z,12.70
2017-10-30T09:39:32.356Z,13.00
2017-10-30T09:41:35.071Z,14.30
2017-10-30T09:43:37.762Z,15.30
2017-10-30T09:45:41.241Z,13.60
2017-10-30T09:47:43.974Z,13.60
2017-10-30T09:49:46.681Z,13.30
2017-10-30T09:51:49.403Z,14.30
2017-10-30T09:53:52.183Z,14.60
2017-10-30T09:55:54.869Z,14.80
2017-10-30T09:57:57.671Z,15.40
2017-10-30T10:00:00.381Z,14.90
2017-10-30T10:02:03.122Z,14.80
2017-10-30T10:04:05.820Z,14.60
2017-10-30T10:06:08.533Z,14.30
2017-10-30T10:08:12.009Z,14.70
2017-10-30T10:10:14.735Z,14.70
2017-10-30T10:12:17.444Z,14.40
2017-10-30T10:14:20.223Z,13.90
2017-10-30T10:16:22.944Z,14.20
2017-10-30T10:18:26.419Z,14.60
2017-10-30T10:20:29.136Z,14.60
2017-10-30T10:22:31.847Z,15.20
2017-10-30T10:24:34.557Z,15.20
2017-10-30T10:26:38.019Z,15.00
2017-10-30T10:28:40.764Z,14.90
2017-10-30T10:30:43.467Z,15.00
2017-10-30T10:32:46.201Z,15.40
2017-10-30T10:34:49.737Z,16.50
2017-10-30T10:36:52.496Z,16.50
2017-10-30T10:38:55.216Z,15.70
2017-10-30T10:40:57.920Z,15.50
2017-10-30T10:43:01.497Z,13.60
2017-10-30T10:45:04.194Z,13.50
2017-10-30T10:47:07.689Z,12.20
2017-10-30T10:49:11.197Z,12.70
2017-10-30T10:51:13.878Z,12.70
2017-10-30T10:53:16.729Z,12.20
2017-10-30T10:55:19.448Z,12.00
2017-10-30T10:57:22.128Z,12.10
2017-10-30T10:59:24.927Z,12.30
2017-10-30T11:01:27.617Z,12.80
2017-10-30T11:03:30.365Z,12.80
2017-10-30T11:05:33.041Z,12.60
2017-10-30T11:07:38.296Z,12.00
2017-10-30T11:09:40.971Z,12.20
2017-10-30T11:11:43.622Z,12.50
2017-10-30T11:13:46.315Z,12.70
2017-10-30T11:15:49.004Z,12.80
2017-10-30T11:17:51.724Z,12.30
2017-10-30T11:19:55.188Z,12.20
2017-10-30T11:21:57.892Z,12.10
2017-10-30T11:24:01.375Z,12.40
2017-10-30T11:26:04.107Z,12.40
2017-10-30T11:28:06.816Z,12.60
2017-10-30T11:30:09.456Z,12.60
2017-10-30T11:32:12.259Z,12.30
2017-10-30T11:34:15.022Z,12.30
2017-10-30T11:36:17.671Z,12.70
2017-10-30T11:38:20.372Z,13.00
2017-10-30T11:40:23.084Z,12.30
2017-10-30T11:42:25.945Z,12.20
2017-10-30T11:44:28.621Z,12.40
2017-10-30T11:46:31.369Z,12.50
2017-10-30T11:48:34.076Z,12.60
2017-10-30T11:50:36.821Z,12.70
2017-10-30T11:52:39.479Z,12.20
2017-10-30T11:54:42.151Z,12.40
2017-10-30T11:56:45.680Z,12.10
2017-10-30T11:58:48.531Z,12.10
2017-10-30T12:00:51.327Z,11.80
2017-10-30T12:02:53.998Z,11.90
2017-10-30T12:04:56.722Z,12.30
2017-10-30T12:06:59.370Z,12.60
2017-10-30T12:09:02.925Z,12.40
2017-10-30T12:11:06.348Z,12.00
2017-10-30T12:13:09.031Z,12.00
2017-10-30T12:15:11.789Z,12.20
2017-10-30T12:17:14.446Z,12.40
2017-10-30T12:19:17.886Z,12.10
2017-10-30T12:21:20.691Z,12.10
2017-10-30T12:23:23.451Z,12.00
2017-10-30T12:25:26.199Z,11.90
2017-10-30T12:27:28.860Z,12.00
2017-10-30T12:29:32.319Z,12.00
2017-10-30T12:31:34.998Z,12.00
2017-10-30T12:33:38.791Z,11.90
2017-10-30T12:35:41.534Z,11.30
2017-10-30T12:37:44.306Z,11.20
2017-10-30T12:39:47.003Z,11.50
2017-10-30T12:41:49.644Z,11.40
2017-10-30T12:43:53.090Z,11.40
2017-10-30T12:45:55.765Z,11.40
2017-10-30T12:47:58.435Z,11.20
2017-10-30T12:50:01.145Z,10.90
2017-10-30T12:52:03.806Z,10.90
2017-10-30T12:54:06.487Z,10.90
2017-10-30T12:56:09.334Z,11.00
2017-10-30T12:58:12.035Z,11.20
2017-10-30T13:00:14.727Z,11.30
2017-10-30T13:02:17.428Z,11.20
2017-10-30T13:04:21.104Z,11.00
2017-10-30T13:06:23.781Z,11.00
2017-10-30T13:08:26.521Z,10.90
2017-10-30T13:10:29.426Z,10.90
2017-10-30T13:12:32.086Z,10.80
2017-10-30T13:14:34.902Z,11.00
2017-10-30T13:16:38.340Z,11.60
2017-10-30T13:18:41.049Z,11.70
2017-10-30T13:20:43.736Z,11.90
2017-10-30T13:22:46.393Z,11.70
2017-10-30T13:24:49.069Z,11.50
2017-10-30T13:26:51.710Z,11.20
2017-10-30T13:28:54.538Z,11.00
2017-10-30T13:30:57.204Z,10.70
2017-10-30T13:33:00.611Z,10.90
2017-10-30T13:35:03.340Z,11.00
2017-10-30T13:37:05.977Z,11.10
2017-10-30T13:39:09.425Z,11.20
2017-10-30T13:41:12.128Z,11.10
2017-10-30T13:43:16.316Z,11.40
2017-10-30T13:45:20.105Z,11.40
2017-10-30T13:47:22.759Z,11.50
2017-10-30T13:49:25.432Z,11.60
2017-10-30T13:51:28.246Z,11.60
2017-10-30T13:53:31.022Z,11.30
2017-10-30T13:55:33.699Z,11.10
2017-10-30T13:57:36.361Z,11.10
2017-10-30T13:59:39.071Z,11.00
2017-10-30T14:01:41.718Z,11.00
2017-10-30T14:03:44.401Z,10.90
2017-10-30T14:05:47.044Z,10.90
2017-10-30T14:07:50.470Z,11.10
2017-10-30T14:09:53.176Z,11.10
2017-10-30T14:11:55.832Z,11.20
2017-10-30T14:13:59.742Z,11.20
2017-10-30T14:16:03.217Z,11.10
2017-10-30T14:18:05.962Z,11.00
2017-10-30T14:20:09.391Z,11.10
2017-10-30T14:22:12.078Z,11.00
2017-10-30T14:24:14.758Z,10.90
2017-10-30T14:26:17.406Z,10.90
2017-10-30T14:28:20.130Z,10.90
2017-10-30T14:30:22.844Z,10.80
2017-10-30T14:32:26.321Z,10.60
2017-10-30T14:34:29.789Z,10.70
2017-10-30T14:36:32.469Z,10.70
2017-10-30T14:38:35.170Z,10.60
2017-10-30T14:40:37.898Z,10.60
2017-10-30T14:42:40.600Z,10.50
2017-10-30T14:44:43.485Z,10.40
2017-10-30T14:46:46.216Z,10.30
2017-10-30T14:48:48.905Z,10.40
2017-10-30T14:50:51.628Z,10.30
2017-10-30T14:52:54.367Z,10.20
2017-10-30T14:54:57.139Z,10.30
2017-10-30T14:57:00.014Z,10.20
2017-10-30T14:59:02.820Z,10.10
2017-10-30T15:01:05.552Z,10.00
2017-10-30T15:03:08.312Z,10.00
2017-10-30T15:05:11.909Z,10.00
2017-10-30T15:07:15.447Z,10.00
2017-10-30T15:09:18.109Z,9.90
2017-10-30T15:11:20.866Z,10.00
2017-10-30T15:13:23.727Z,10.00
2017-10-30T15:15:26.495Z,10.10
2017-10-30T15:17:29.331Z,10.00
2017-10-30T15:19:32.148Z,9.90
2017-10-30T15:21:34.863Z,9.90
2017-10-30T15:23:38.386Z,9.70
2017-10-30T15:25:41.083Z,9.60
2017-10-30T15:27:43.820Z,9.60
2017-10-30T15:29:47.300Z,9.40
2017-10-30T15:31:50.878Z,9.40
2017-10-30T15:33:53.710Z,9.40
2017-10-30T15:35:56.374Z,9.30
2017-10-30T15:37:59.850Z,9.20
2017-10-30T15:40:03.498Z,9.20
2017-10-30T15:42:06.315Z,9.10
2017-10-30T15:44:09.073Z,9.10
2017-10-30T15:46:12.488Z,9.00
2017-10-30T15:48:15.138Z,8.90
2017-10-30T15:50:17.863Z,8.90
2017-10-30T15:52:21.257Z,8.80
2017-10-30T15:54:24.776Z,8.80
2017-10-30T15:56:27.582Z,8.70
2017-10-30T15:58:30.269Z,8.70
2017-10-30T16:00:32.984Z,8.60
2017-10-30T16:02:36.418Z,8.50
2017-10-30T16:04:39.065Z,8.50
2017-10-30T16:06:41.799Z,8.50
2017-10-30T16:08:44.465Z,8.40
2017-10-30T16:10:47.303Z,8.40
2017-10-30T16:12:50.036Z,8.50
2017-10-30T16:14:52.779Z,8.50
2017-10-30T16:16:55.485Z,8.50
2017-10-30T16:18:58.194Z,8.50
2017-10-30T16:21:01.846Z,8.40
2017-10-30T16:23:04.523Z,8.40
2017-10-30T16:25:07.199Z,8.30
2017-10-30T16:27:09.874Z,8.20
2017-10-30T16:29:12.569Z,8.00
2017-10-30T16:31:15.277Z,8.00
2017-10-30T16:33:18.036Z,7.90
2017-10-30T16:35:21.477Z,7.90
2017-10-30T16:37:24.239Z,7.80
2017-10-30T16:39:26.948Z,7.80
2017-10-30T16:41:30.301Z,7.60
2017-10-30T16:43:33.567Z,7.50
2017-10-30T16:45:36.327Z,7.40
2017-10-30T16:47:39.754Z,7.30
2017-10-30T16:49:43.216Z,7.20
2017-10-30T16:51:46.000Z,7.20
2017-10-30T16:53:48.679Z,7.10
2017-10-30T16:55:51.384Z,7.10
2017-10-30T16:57:54.818Z,7.10
2017-10-30T16:59:57.505Z,7.10
2017-10-30T17:02:00.217Z,7.10
2017-10-30T17:04:03.651Z,7.50
2017-10-30T17:06:06.305Z,7.40
2017-10-30T17:08:09.021Z,7.40
2017-10-30T17:10:11.745Z,7.40
2017-10-30T17:12:15.221Z,7.50
2017-10-30T17:14:17.905Z,7.50
2017-10-30T17:16:20.592Z,7.60
2017-10-30T17:18:24.040Z,7.80
2017-10-30T17:20:26.767Z,7.70
2017-10-30T17:22:30.220Z,7.80
2017-10-30T17:24:33.470Z,7.80
2017-10-30T17:26:36.145Z,7.80
2017-10-30T17:28:38.863Z,7.80
2017-10-30T17:30:41.550Z,7.80
2017-10-30T17:32:44.241Z,7.80
2017-10-30T17:34:46.966Z,7.90
2017-10-30T17:36:49.632Z,7.90
2017-10-30T17:38:52.420Z,7.90
2017-10-30T17:40:55.364Z,7.90
2017-10-30T17:42:58.819Z,7.90
2017-10-30T17:45:02.516Z,7.90
2017-10-30T17:47:05.273Z,7.90
2017-10-30T17:49:08.076Z,7.90
2017-10-30T17:51:10.752Z,8.00
2017-10-30T17:53:13.446Z,7.90
2017-10-30T17:55:16.211Z,7.90
2017-10-30T17:57:19.001Z,7.90
2017-10-30T17:59:21.650Z,7.90
2017-10-30T18:01:24.307Z,7.90
2017-10-30T18:03:27.094Z,7.90
2017-10-30T18:05:29.764Z,7.90
2017-10-30T18:07:32.550Z,7.90
2017-10-30T18:09:35.388Z,7.90
2017-10-30T18:11:38.184Z,7.80
2017-10-30T18:13:42.820Z,7.90
2017-10-30T18:15:45.493Z,7.90
2017-10-30T18:17:48.167Z,7.90
2017-10-30T18:19:50.816Z,7.80
2017-10-30T18:22:00.125Z,7.80
2017-10-30T18:24:02.985Z,7.70
2017-10-30T18:26:05.625Z,7.70
2017-10-30T18:28:09.044Z,7.70
2017-10-30T18:30:11.731Z,7.70
2017-10-30T18:32:14.662Z,7.70
2017-10-30T18:34:18.192Z,7.70
2017-10-30T18:36:20.908Z,7.60
2017-10-30T18:38:23.632Z,7.60
2017-10-30T18:40:27.571Z,7.60
2017-10-30T18:42:31.164Z,7.50
2017-10-30T18:44:33.907Z,7.50
2017-10-30T18:46:37.317Z,7.60
2017-10-30T18:48:40.128Z,7.60
2017-10-30T18:50:42.960Z,7.60
2017-10-30T18:52:45.616Z,7.50
2017-10-30T18:54:49.112Z,7.30
2017-10-30T18:56:52.034Z,7.30
2017-10-30T18:58:54.689Z,7.20
2017-10-30T19:00:58.217Z,7.10
2017-10-30T19:03:01.195Z,7.10
2017-10-30T19:05:04.905Z,7.00
2017-10-30T19:07:10.172Z,7.00
2017-10-30T19:09:13.621Z,6.90
2017-10-30T19:11:16.410Z,6.90
2017-10-30T19:13:19.176Z,6.80
2017-10-30T19:15:22.912Z,6.80
2017-10-30T19:17:27.235Z,6.70
2017-10-30T19:19:30.796Z,6.50
2017-10-30T19:21:33.503Z,6.50
2017-10-30T19:23:37.072Z,6.40
2017-10-30T19:25:39.825Z,6.40
2017-10-30T19:27:42.722Z,6.30
2017-10-30T19:29:45.629Z,6.30
2017-10-30T19:31:48.497Z,6.20
2017-10-30T19:33:51.259Z,6.20
2017-10-30T19:35:54.984Z,6.20
2017-10-30T19:37:58.898Z,6.20
2017-10-30T19:40:01.690Z,6.10
2017-10-30T19:42:04.446Z,6.10
2017-10-30T19:44:07.306Z,6.10
2017-10-30T19:46:10.037Z,6.10
2017-10-30T19:48:12.694Z,6.00
2017-10-30T19:50:15.337Z,5.90
2017-10-30T19:52:18.067Z,5.90
2017-10-30T19:54:21.323Z,5.80
2017-10-30T19:56:23.992Z,5.80
2017-10-30T19:58:26.733Z,5.70
2017-10-30T20:00:30.157Z,5.70
2017-10-30T20:02:32.835Z,5.60
2017-10-30T20:04:35.500Z,5.50
2017-10-30T20:06:43.835Z,5.30
2017-10-30T20:08:52.244Z,5.30
2017-10-30T20:11:00.688Z,5.30
2017-10-30T20:13:04.857Z,5.30
2017-10-30T20:15:07.620Z,5.30
2017-10-30T20:17:10.285Z,5.40
2017-10-30T20:19:12.943Z,5.30
2017-10-30T20:21:16.388Z,5.20
2017-10-30T20:23:19.239Z,5.20
2017-10-30T20:25:21.903Z,5.30
2017-10-30T20:27:24.574Z,5.30
2017-10-30T20:29:28.077Z,5.20
2017-10-30T20:31:30.881Z,5.20
2017-10-30T20:33:33.553Z,5.10
2017-10-30T20:35:36.214Z,5.00
2017-10-30T20:37:39.645Z,5.00
2017-10-30T20:39:44.361Z,4.90
2017-10-30T20:41:47.154Z,4.90
2017-10-30T20:43:52.131Z,4.90
2017-10-30T20:45:55.137Z,4.90
2017-10-30T20:47:57.814Z,4.90
2017-10-30T20:50:00.470Z,5.00
2017-10-30T20:52:03.181Z,5.00
2017-10-30T20:54:05.820Z,4.90
2017-10-30T20:56:08.643Z,4.80
2017-10-30T20:58:11.489Z,4.80
2017-10-30T21:00:14.159Z,4.70
2017-10-30T21:02:16.983Z,4.80
2017-10-30T21:04:19.633Z,4.80
2017-10-30T21:06:22.461Z,4.80
2017-10-30T21:08:26.108Z,4.90
2017-10-30T21:10:28.773Z,4.80
2017-10-30T21:12:31.760Z,4.90
2017-10-30T21:14:34.479Z,4.90
2017-10-30T21:16:37.169Z,5.00
2017-10-30T21:18:39.828Z,5.00
2017-10-30T21:20:42.482Z,5.10
2017-10-30T21:22:45.183Z,5.20
2017-10-30T21:24:48.138Z,5.40
2017-10-30T21:26:51.934Z,5.50
2017-10-30T21:28:54.708Z,5.60
2017-10-30T21:30:57.349Z,5.60
2017-10-30T21:33:01.343Z,5.70
2017-10-30T21:35:04.069Z,5.70
2017-10-30T21:37:06.734Z,5.80
2017-10-30T21:39:09.410Z,5.80
2017-10-30T21:41:12.211Z,5.90
2017-10-30T21:43:14.881Z,6.00
2017-10-30T21:45:17.562Z,6.00
2017-10-30T21:47:20.271Z,6.10
2017-10-30T21:49:22.912Z,6.10
2017-10-30T21:51:25.572Z,6.20
2017-10-30T21:53:28.209Z,6.30
2017-10-30T21:55:32.471Z,6.40
2017-10-30T21:57:35.162Z,6.40
2017-10-30T21:59:37.843Z,6.50
2017-10-30T22:01:40.601Z,6.50
2017-10-30T22:03:43.284Z,6.50
2017-10-30T22:05:45.943Z,6.50
2017-10-30T22:07:48.732Z,6.50
2017-10-30T22:09:51.386Z,6.60
2017-10-30T22:11:54.815Z,6.70
2017-10-30T22:13:57.497Z,6.70
2017-10-30T22:16:00.155Z,6.70
2017-10-30T22:18:06.770Z,6.70
2017-10-30T22:20:09.419Z,6.80
2017-10-30T22:22:12.072Z,6.80
2017-10-30T22:24:14.836Z,6.80
2017-10-30T22:26:17.496Z,6.90
2017-10-30T22:28:20.942Z,6.80
2017-10-30T22:30:23.586Z,6.80
2017-10-30T22:32:26.243Z,6.80
2017-10-30T22:34:29.683Z,6.80
2017-10-30T22:36:32.346Z,6.80
2017-10-30T22:38:35.019Z,6.90
2017-10-30T22:40:37.679Z,6.90
2017-10-30T22:42:40.330Z,6.90
2017-10-30T22:44:43.765Z,6.90
2017-10-30T22:46:46.488Z,6.90
2017-10-30T22:48:49.202Z,7.00
2017-10-30T22:50:51.871Z,7.00
2017-10-30T22:52:55.295Z,7.00
2017-10-30T22:54:57.983Z,7.00
2017-10-30T22:57:00.621Z,7.00
2017-10-30T22:59:03.297Z,7.00
2017-10-30T23:01:05.964Z,7.00
2017-10-30T23:03:09.415Z,7.00
2017-10-30T23:05:12.159Z,7.00
2017-10-30T23:07:14.815Z,7.00
2017-10-30T23:09:18.334Z,7.10
2017-10-30T23:11:20.989Z,7.10
2017-10-30T23:13:24.425Z,7.10
2017-10-30T23:15:27.084Z,7.10
2017-10-30T23:17:29.731Z,7.00
2017-10-30T23:19:32.412Z,7.10
2017-10-30T23:21:35.912Z,7.10
2017-10-30T23:23:38.755Z,7.00
2017-10-30T23:25:41.422Z,7.10
2017-10-30T23:27:44.061Z,7.20
2017-10-30T23:29:46.744Z,7.20
2017-10-30T23:31:49.401Z,7.20
2017-10-30T23:33:52.073Z,7.20
2017-10-30T23:35:54.857Z,7.20
2017-10-30T23:37:57.520Z,7.10
2017-10-30T23:40:00.191Z,7.10
2017-10-30T23:42:02.849Z,7.10
2017-10-30T23:44:05.516Z,7.10
2017-10-30T23:46:08.169Z,7.10
2017-10-30T23:48:10.824Z,7.20
2017-10-30T23:50:13.489Z,7.20
2017-10-30T23:52:16.177Z,7.20
2017-10-30T23:54:25.006Z,7.20
2017-10-30T23:56:27.636Z,7.30
2017-10-30T23:58:31.065Z,7.20
